sensor_id;sensor_type;location;lat;lon;timestamp;pressure;altitude;pressure_sealevel;temperature;humidity
9289;BME280;4683;50.864;12.086;2023-10-31T00:02:28;97088.09;;;14.43;100.00
9289;BME280;4683;50.864;12.086;2023-10-31T00:04:56;97077.38;;;14.28;100.00
9289;BME280;4683;50.864;12.086;2023-10-31T00:07:26;97071.81;;;14.30;100.00
9289;BME280;4683;50.864;12.086;2023-10-31T00:09:54;97064.78;;;14.45;100.00
9289;BME280;4683;50.864;12.086;2023-10-31T00:12:22;97059.59;;;14.61;100.00
9289;BME280;4683;50.864;12.086;2023-10-31T00:14:50;97083.53;;;14.71;100.00
9289;BME280;4683;50.864;12.086;2023-10-31T00:17:19;97082.53;;;14.77;100.00
9289;BME280;4683;50.864;12.086;2023-10-31T00:19:48;97096.13;;;14.86;100.00
9289;BME280;4683;50.864;12.086;2023-10-31T00:22:16;97090.56;;;14.92;100.00
9289;BME280;4683;50.864;12.086;2023-10-31T00:24:44;97096.69;;;14.93;100.00
9289;BME280;4683;50.864;12.086;2023-10-31T00:27:12;97096.94;;;14.91;100.00
9289;BME280;4683;50.864;12.086;2023-10-31T00:29:41;97090.28;;;14.89;100.00
9289;BME280;4683;50.864;12.086;2023-10-31T00:32:09;97091.59;;;14.81;100.00
9289;BME280;4683;50.864;12.086;2023-10-31T00:34:38;97101.34;;;14.76;100.00
9289;BME280;4683;50.864;12.086;2023-10-31T00:37:07;97101.03;;;14.67;100.00
9289;BME280;4683;50.864;12.086;2023-10-31T00:39:35;97091.91;;;14.53;100.00
9289;BME280;4683;50.864;12.086;2023-10-31T00:42:03;97089.19;;;14.47;100.00
9289;BME280;4683;50.864;12.086;2023-10-31T00:44:31;97078.50;;;14.37;100.00
9289;BME280;4683;50.864;12.086;2023-10-31T00:47:00;97081.63;;;14.29;100.00
9289;BME280;4683;50.864;12.086;2023-10-31T00:49:28;97072.09;;;14.33;100.00
9289;BME280;4683;50.864;12.086;2023-10-31T00:51:56;97071.75;;;14.52;100.00
9289;BME280;4683;50.864;12.086;2023-10-31T00:54:26;97071.69;;;14.46;100.00
9289;BME280;4683;50.864;12.086;2023-10-31T00:56:54;97065.91;;;14.50;100.00
9289;BME280;4683;50.864;12.086;2023-10-31T00:59:23;97064.94;;;14.66;100.00
9289;BME280;4683;50.864;12.086;2023-10-31T01:01:51;97063.38;;;14.75;100.00
9289;BME280;4683;50.864;12.086;2023-10-31T01:04:19;97068.19;;;14.78;100.00
9289;BME280;4683;50.864;12.086;2023-10-31T01:06:47;97069.78;;;14.79;100.00
9289;BME280;4683;50.864;12.086;2023-10-31T01:09:16;97073.50;;;14.78;100.00
9289;BME280;4683;50.864;12.086;2023-10-31T01:11:46;97069.03;;;14.84;100.00
9289;BME280;4683;50.864;12.086;2023-10-31T01:14:14;97070.34;;;14.81;100.00
9289;BME280;4683;50.864;12.086;2023-10-31T01:16:42;97068.94;;;14.68;100.00
9289;BME280;4683;50.864;12.086;2023-10-31T01:19:10;97067.50;;;14.51;100.00
9289;BME280;4683;50.864;12.086;2023-10-31T01:21:38;97066.53;;;14.35;100.00
9289;BME280;4683;50.864;12.086;2023-10-31T01:24:08;97065.72;;;14.29;100.00
9289;BME280;4683;50.864;12.086;2023-10-31T01:26:36;97058.75;;;14.18;100.00
9289;BME280;4683;50.864;12.086;2023-10-31T01:29:08;97062.38;;;14.12;100.00
9289;BME280;4683;50.864;12.086;2023-10-31T01:31:36;97058.13;;;14.11;100.00
9289;BME280;4683;50.864;12.086;2023-10-31T01:34:04;97063.09;;;14.02;100.00
9289;BME280;4683;50.864;12.086;2023-10-31T01:36:33;97045.16;;;14.09;100.00
9289;BME280;4683;50.864;12.086;2023-10-31T01:39:01;97043.09;;;14.21;100.00
9289;BME280;4683;50.864;12.086;2023-10-31T01:41:29;97044.50;;;14.29;100.00
9289;BME280;4683;50.864;12.086;2023-10-31T01:43:58;97044.50;;;14.29;100.00
9289;BME280;4683;50.864;12.086;2023-10-31T01:50:34;97044.91;;;14.48;100.00
9289;BME280;4683;50.864;12.086;2023-10-31T01:53:03;97053.75;;;14.59;100.00
9289;BME280;4683;50.864;12.086;2023-10-31T01:55:31;97057.22;;;14.59;100.00
9289;BME280;4683;50.864;12.086;2023-10-31T01:58:00;97064.06;;;14.55;100.00
9289;BME280;4683;50.864;12.086;2023-10-31T02:00:29;97065.56;;;14.46;100.00
9289;BME280;4683;50.864;12.086;2023-10-31T02:02:58;97058.38;;;14.41;100.00
9289;BME280;4683;50.864;12.086;2023-10-31T02:05:27;97049.09;;;14.44;100.00
9289;BME280;4683;50.864;12.086;2023-10-31T02:07:56;97058.47;;;14.52;100.00
9289;BME280;4683;50.864;12.086;2023-10-31T02:10:25;97051.63;;;14.61;100.00
9289;BME280;4683;50.864;12.086;2023-10-31T02:12:53;97051.09;;;14.59;100.00
9289;BME280;4683;50.864;12.086;2023-10-31T02:15:21;97065.91;;;14.50;100.00
9289;BME280;4683;50.864;12.086;2023-10-31T02:17:49;97063.66;;;14.36;100.00
9289;BME280;4683;50.864;12.086;2023-10-31T02:20:18;97057.72;;;14.24;100.00
9289;BME280;4683;50.864;12.086;2023-10-31T02:22:48;97051.88;;;14.22;100.00
9289;BME280;4683;50.864;12.086;2023-10-31T02:25:17;97047.06;;;14.19;100.00
9289;BME280;4683;50.864;12.086;2023-10-31T02:27:46;97039.72;;;14.26;100.00
9289;BME280;4683;50.864;12.086;2023-10-31T02:30:14;97050.88;;;14.33;100.00
9289;BME280;4683;50.864;12.086;2023-10-31T02:32:43;97049.25;;;14.27;100.00
9289;BME280;4683;50.864;12.086;2023-10-31T02:35:13;97045.81;;;14.27;100.00
9289;BME280;4683;50.864;12.086;2023-10-31T02:37:42;97044.78;;;14.33;100.00
9289;BME280;4683;50.864;12.086;2023-10-31T02:40:14;97042.25;;;14.48;100.00
9289;BME280;4683;50.864;12.086;2023-10-31T02:42:42;97044.44;;;14.56;100.00
9289;BME280;4683;50.864;12.086;2023-10-31T02:45:11;97052.22;;;14.68;100.00
9289;BME280;4683;50.864;12.086;2023-10-31T02:47:40;97050.13;;;14.75;100.00
9289;BME280;4683;50.864;12.086;2023-10-31T02:50:09;97052.28;;;14.83;100.00
9289;BME280;4683;50.864;12.086;2023-10-31T02:52:37;97062.94;;;14.88;100.00
9289;BME280;4683;50.864;12.086;2023-10-31T02:55:06;97071.47;;;14.90;100.00
9289;BME280;4683;50.864;12.086;2023-10-31T02:57:36;97081.53;;;14.88;100.00
9289;BME280;4683;50.864;12.086;2023-10-31T03:00:06;97083.88;;;14.85;100.00
9289;BME280;4683;50.864;12.086;2023-10-31T03:02:35;97090.53;;;14.82;100.00
9289;BME280;4683;50.864;12.086;2023-10-31T03:05:03;97087.31;;;14.80;100.00
9289;BME280;4683;50.864;12.086;2023-10-31T03:07:32;97087.88;;;14.82;100.00
9289;BME280;4683;50.864;12.086;2023-10-31T03:10:00;97092.13;;;14.83;100.00
9289;BME280;4683;50.864;12.086;2023-10-31T03:12:29;97089.47;;;14.83;100.00
9289;BME280;4683;50.864;12.086;2023-10-31T03:14:59;97091.31;;;14.83;100.00
9289;BME280;4683;50.864;12.086;2023-10-31T03:17:28;97096.09;;;14.81;100.00
9289;BME280;4683;50.864;12.086;2023-10-31T03:19:56;97089.19;;;14.85;100.00
9289;BME280;4683;50.864;12.086;2023-10-31T03:22:25;97087.38;;;14.85;100.00
9289;BME280;4683;50.864;12.086;2023-10-31T03:24:53;97096.34;;;14.84;100.00
9289;BME280;4683;50.864;12.086;2023-10-31T03:27:21;97091.50;;;14.71;100.00
9289;BME280;4683;50.864;12.086;2023-10-31T03:29:50;97098.00;;;14.53;100.00
9289;BME280;4683;50.864;12.086;2023-10-31T03:32:19;97092.47;;;14.55;100.00
9289;BME280;4683;50.864;12.086;2023-10-31T03:34:48;97091.47;;;14.66;100.00
9289;BME280;4683;50.864;12.086;2023-10-31T03:37:17;97092.03;;;14.68;100.00
9289;BME280;4683;50.864;12.086;2023-10-31T03:39:45;97094.94;;;14.71;100.00
9289;BME280;4683;50.864;12.086;2023-10-31T03:42:14;97097.59;;;14.71;100.00
9289;BME280;4683;50.864;12.086;2023-10-31T03:44:43;97102.13;;;14.71;100.00
9289;BME280;4683;50.864;12.086;2023-10-31T03:47:10;97097.38;;;14.73;100.00
9289;BME280;4683;50.864;12.086;2023-10-31T03:49:40;97104.28;;;14.79;100.00
9289;BME280;4683;50.864;12.086;2023-10-31T03:52:09;97108.53;;;14.80;100.00
9289;BME280;4683;50.864;12.086;2023-10-31T03:54:37;97100.91;;;14.89;100.00
9289;BME280;4683;50.864;12.086;2023-10-31T04:01:12;97108.06;;;14.88;100.00
9289;BME280;4683;50.864;12.086;2023-10-31T04:03:41;97105.13;;;14.85;100.00
9289;BME280;4683;50.864;12.086;2023-10-31T04:06:11;97109.19;;;14.55;100.00
9289;BME280;4683;50.864;12.086;2023-10-31T04:08:39;97109.41;;;14.21;100.00
9289;BME280;4683;50.864;12.086;2023-10-31T04:11:08;97105.38;;;14.14;100.00
9289;BME280;4683;50.864;12.086;2023-10-31T04:13:36;97098.47;;;14.13;100.00
9289;BME280;4683;50.864;12.086;2023-10-31T04:16:05;97100.06;;;14.14;100.00
9289;BME280;4683;50.864;12.086;2023-10-31T04:18:33;97099.97;;;14.04;100.00
9289;BME280;4683;50.864;12.086;2023-10-31T04:21:01;97104.69;;;13.96;100.00
9289;BME280;4683;50.864;12.086;2023-10-31T04:23:31;97104.06;;;13.89;100.00
9289;BME280;4683;50.864;12.086;2023-10-31T04:25:59;97107.84;;;13.71;100.00
9289;BME280;4683;50.864;12.086;2023-10-31T04:28:27;97101.28;;;13.74;100.00
9289;BME280;4683;50.864;12.086;2023-10-31T04:30:55;97107.63;;;13.73;100.00
9289;BME280;4683;50.864;12.086;2023-10-31T04:33:23;97118.28;;;13.78;100.00
9289;BME280;4683;50.864;12.086;2023-10-31T04:35:51;97121.97;;;13.77;100.00
9289;BME280;4683;50.864;12.086;2023-10-31T04:38:20;97124.72;;;13.87;100.00
9289;BME280;4683;50.864;12.086;2023-10-31T04:40:51;97125.47;;;13.83;100.00
9289;BME280;4683;50.864;12.086;2023-10-31T04:43:19;97125.16;;;13.79;100.00
9289;BME280;4683;50.864;12.086;2023-10-31T04:45:47;97138.41;;;13.79;100.00
9289;BME280;4683;50.864;12.086;2023-10-31T04:48:18;97134.78;;;13.85;100.00
9289;BME280;4683;50.864;12.086;2023-10-31T04:50:47;97142.19;;;13.83;100.00
9289;BME280;4683;50.864;12.086;2023-10-31T04:53:15;97149.06;;;13.84;100.00
9289;BME280;4683;50.864;12.086;2023-10-31T04:55:44;97149.63;;;13.86;100.00
9289;BME280;4683;50.864;12.086;2023-10-31T04:58:14;97151.22;;;13.87;100.00
9289;BME280;4683;50.864;12.086;2023-10-31T05:00:42;97159.41;;;13.81;100.00
9289;BME280;4683;50.864;12.086;2023-10-31T05:03:11;97166.47;;;13.75;100.00
9289;BME280;4683;50.864;12.086;2023-10-31T05:05:39;97165.28;;;13.66;100.00
9289;BME280;4683;50.864;12.086;2023-10-31T05:08:07;97176.22;;;13.69;100.00
9289;BME280;4683;50.864;12.086;2023-10-31T05:10:35;97172.28;;;13.72;100.00
9289;BME280;4683;50.864;12.086;2023-10-31T05:13:03;97183.34;;;13.69;100.00
9289;BME280;4683;50.864;12.086;2023-10-31T05:15:34;97196.03;;;13.67;100.00
9289;BME280;4683;50.864;12.086;2023-10-31T05:18:02;97189.47;;;13.69;100.00
9289;BME280;4683;50.864;12.086;2023-10-31T05:20:31;97187.75;;;13.58;100.00
9289;BME280;4683;50.864;12.086;2023-10-31T05:23:00;97195.44;;;13.60;100.00
9289;BME280;4683;50.864;12.086;2023-10-31T05:25:28;97204.25;;;13.65;100.00
9289;BME280;4683;50.864;12.086;2023-10-31T05:27:57;97201.84;;;13.64;100.00
9289;BME280;4683;50.864;12.086;2023-10-31T05:30:26;97218.22;;;13.61;100.00
9289;BME280;4683;50.864;12.086;2023-10-31T05:32:58;97216.78;;;13.53;100.00
9289;BME280;4683;50.864;12.086;2023-10-31T05:35:26;97215.38;;;13.45;100.00
9289;BME280;4683;50.864;12.086;2023-10-31T05:37:54;97224.63;;;13.43;100.00
9289;BME280;4683;50.864;12.086;2023-10-31T05:40:23;97231.94;;;13.36;100.00
9289;BME280;4683;50.864;12.086;2023-10-31T05:42:53;97240.22;;;13.23;100.00
9289;BME280;4683;50.864;12.086;2023-10-31T05:45:21;97245.09;;;13.14;100.00
9289;BME280;4683;50.864;12.086;2023-10-31T05:47:50;97241.88;;;13.12;100.00
9289;BME280;4683;50.864;12.086;2023-10-31T05:50:19;97241.94;;;13.17;100.00
9289;BME280;4683;50.864;12.086;2023-10-31T05:52:47;97251.50;;;13.18;100.00
9289;BME280;4683;50.864;12.086;2023-10-31T05:55:16;97256.41;;;13.26;100.00
9289;BME280;4683;50.864;12.086;2023-10-31T06:01:50;97286.38;;;13.27;100.00
9289;BME280;4683;50.864;12.086;2023-10-31T06:04:19;97282.22;;;13.19;100.00
9289;BME280;4683;50.864;12.086;2023-10-31T06:06:48;97296.03;;;13.21;100.00
9289;BME280;4683;50.864;12.086;2023-10-31T06:09:16;97306.53;;;13.16;100.00
9289;BME280;4683;50.864;12.086;2023-10-31T06:11:45;97316.78;;;13.12;100.00
9289;BME280;4683;50.864;12.086;2023-10-31T06:14:15;97320.81;;;13.15;100.00
9289;BME280;4683;50.864;12.086;2023-10-31T06:16:44;97330.63;;;13.14;100.00
9289;BME280;4683;50.864;12.086;2023-10-31T06:19:12;97338.81;;;13.13;100.00
9289;BME280;4683;50.864;12.086;2023-10-31T06:21:40;97354.69;;;13.13;100.00
9289;BME280;4683;50.864;12.086;2023-10-31T06:24:11;97358.66;;;12.99;100.00
9289;BME280;4683;50.864;12.086;2023-10-31T06:26:39;97363.00;;;13.05;100.00
9289;BME280;4683;50.864;12.086;2023-10-31T06:29:07;97374.53;;;12.99;100.00
9289;BME280;4683;50.864;12.086;2023-10-31T06:31:36;97384.03;;;12.94;100.00
9289;BME280;4683;50.864;12.086;2023-10-31T06:34:05;97395.13;;;13.08;100.00
9289;BME280;4683;50.864;12.086;2023-10-31T06:36:33;97394.91;;;12.98;100.00
9289;BME280;4683;50.864;12.086;2023-10-31T06:39:02;97394.44;;;13.01;100.00
9289;BME280;4683;50.864;12.086;2023-10-31T06:41:40;97392.34;;;13.03;100.00
9289;BME280;4683;50.864;12.086;2023-10-31T06:44:09;97397.88;;;13.02;100.00
9289;BME280;4683;50.864;12.086;2023-10-31T06:46:38;97393.78;;;12.94;100.00
9289;BME280;4683;50.864;12.086;2023-10-31T06:49:07;97397.56;;;12.98;100.00
9289;BME280;4683;50.864;12.086;2023-10-31T06:51:36;97403.09;;;12.97;100.00
9289;BME280;4683;50.864;12.086;2023-10-31T06:54:04;97404.56;;;13.04;100.00
9289;BME280;4683;50.864;12.086;2023-10-31T06:56:35;97402.47;;;13.06;100.00
9289;BME280;4683;50.864;12.086;2023-10-31T06:59:04;97411.31;;;13.12;100.00
9289;BME280;4683;50.864;12.086;2023-10-31T07:01:33;97421.44;;;13.15;100.00
9289;BME280;4683;50.864;12.086;2023-10-31T07:04:01;97432.81;;;13.15;100.00
9289;BME280;4683;50.864;12.086;2023-10-31T07:06:30;97435.44;;;13.27;100.00
9289;BME280;4683;50.864;12.086;2023-10-31T07:08:59;97442.78;;;13.37;100.00
9289;BME280;4683;50.864;12.086;2023-10-31T07:11:34;97437.59;;;13.30;100.00
9289;BME280;4683;50.864;12.086;2023-10-31T07:14:03;97446.22;;;13.37;100.00
9289;BME280;4683;50.864;12.086;2023-10-31T07:16:33;97453.28;;;13.49;100.00
9289;BME280;4683;50.864;12.086;2023-10-31T07:19:01;97465.81;;;13.36;100.00
9289;BME280;4683;50.864;12.086;2023-10-31T07:21:30;97466.44;;;13.43;100.00
9289;BME280;4683;50.864;12.086;2023-10-31T07:23:58;97478.81;;;13.38;100.00
9289;BME280;4683;50.864;12.086;2023-10-31T07:26:26;97481.88;;;13.47;100.00
9289;BME280;4683;50.864;12.086;2023-10-31T07:28:56;97479.22;;;13.47;100.00
9289;BME280;4683;50.864;12.086;2023-10-31T07:31:25;97482.41;;;13.49;100.00
9289;BME280;4683;50.864;12.086;2023-10-31T07:33:53;97490.25;;;13.55;100.00
9289;BME280;4683;50.864;12.086;2023-10-31T07:36:23;97489.59;;;13.65;100.00
9289;BME280;4683;50.864;12.086;2023-10-31T07:38:51;97488.81;;;13.64;100.00
9289;BME280;4683;50.864;12.086;2023-10-31T07:41:20;97479.78;;;13.49;100.00
9289;BME280;4683;50.864;12.086;2023-10-31T07:43:48;97487.63;;;13.43;100.00
9289;BME280;4683;50.864;12.086;2023-10-31T07:46:18;97483.06;;;13.39;100.00
9289;BME280;4683;50.864;12.086;2023-10-31T07:48:48;97484.56;;;13.35;100.00
9289;BME280;4683;50.864;12.086;2023-10-31T07:51:16;97489.34;;;13.50;100.00
9289;BME280;4683;50.864;12.086;2023-10-31T07:53:45;97490.69;;;13.35;100.00
9289;BME280;4683;50.864;12.086;2023-10-31T07:56:18;97488.06;;;13.12;100.00
9289;BME280;4683;50.864;12.086;2023-10-31T07:58:49;97485.53;;;13.29;100.00
9289;BME280;4683;50.864;12.086;2023-10-31T08:01:20;97494.84;;;13.31;100.00
9289;BME280;4683;50.864;12.086;2023-10-31T08:03:49;97506.63;;;13.24;100.00
9289;BME280;4683;50.864;12.086;2023-10-31T08:06:17;97497.97;;;13.28;100.00
9289;BME280;4683;50.864;12.086;2023-10-31T08:08:46;97509.22;;;13.35;100.00
9289;BME280;4683;50.864;12.086;2023-10-31T08:11:15;97520.91;;;13.51;100.00
9289;BME280;4683;50.864;12.086;2023-10-31T08:13:44;97526.38;;;13.61;100.00
9289;BME280;4683;50.864;12.086;2023-10-31T08:16:19;97532.47;;;13.62;100.00
9289;BME280;4683;50.864;12.086;2023-10-31T08:18:48;97537.84;;;13.95;100.00
9289;BME280;4683;50.864;12.086;2023-10-31T08:21:16;97536.69;;;13.91;100.00
9289;BME280;4683;50.864;12.086;2023-10-31T08:23:44;97538.47;;;14.03;100.00
9289;BME280;4683;50.864;12.086;2023-10-31T08:26:13;97544.91;;;14.07;100.00
9289;BME280;4683;50.864;12.086;2023-10-31T08:28:41;97548.44;;;14.12;100.00
9289;BME280;4683;50.864;12.086;2023-10-31T08:31:10;97550.59;;;13.99;100.00
9289;BME280;4683;50.864;12.086;2023-10-31T08:33:40;97556.81;;;14.04;100.00
9289;BME280;4683;50.864;12.086;2023-10-31T08:36:09;97555.00;;;13.93;100.00
9289;BME280;4683;50.864;12.086;2023-10-31T08:38:38;97555.81;;;13.93;100.00
9289;BME280;4683;50.864;12.086;2023-10-31T08:41:06;97564.03;;;14.09;100.00
9289;BME280;4683;50.864;12.086;2023-10-31T08:43:35;97556.00;;;14.20;100.00
9289;BME280;4683;50.864;12.086;2023-10-31T08:46:04;97569.31;;;13.92;100.00
9289;BME280;4683;50.864;12.086;2023-10-31T08:48:33;97574.63;;;13.92;100.00
9289;BME280;4683;50.864;12.086;2023-10-31T08:51:03;97582.03;;;14.07;100.00
9289;BME280;4683;50.864;12.086;2023-10-31T08:53:31;97575.59;;;14.19;100.00
9289;BME280;4683;50.864;12.086;2023-10-31T08:56:00;97591.78;;;14.18;100.00
9289;BME280;4683;50.864;12.086;2023-10-31T08:58:29;97585.88;;;14.16;100.00
9289;BME280;4683;50.864;12.086;2023-10-31T09:00:57;97592.50;;;14.13;100.00
9289;BME280;4683;50.864;12.086;2023-10-31T09:03:25;97591.50;;;13.86;100.00
9289;BME280;4683;50.864;12.086;2023-10-31T09:05:53;97593.13;;;14.04;100.00
9289;BME280;4683;50.864;12.086;2023-10-31T09:08:24;97591.06;;;14.23;100.00
9289;BME280;4683;50.864;12.086;2023-10-31T09:10:53;97592.16;;;14.10;100.00
9289;BME280;4683;50.864;12.086;2023-10-31T09:13:21;97593.44;;;14.24;100.00
9289;BME280;4683;50.864;12.086;2023-10-31T09:15:50;97614.41;;;14.09;100.00
9289;BME280;4683;50.864;12.086;2023-10-31T09:18:18;97615.03;;;13.70;100.00
9289;BME280;4683;50.864;12.086;2023-10-31T09:20:49;97628.72;;;13.79;100.00
9289;BME280;4683;50.864;12.086;2023-10-31T09:23:18;97631.03;;;13.76;100.00
9289;BME280;4683;50.864;12.086;2023-10-31T09:25:49;97627.78;;;13.85;100.00
9289;BME280;4683;50.864;12.086;2023-10-31T09:28:18;97624.63;;;14.17;100.00
9289;BME280;4683;50.864;12.086;2023-10-31T09:30:46;97624.63;;;14.17;100.00
9289;BME280;4683;50.864;12.086;2023-10-31T09:33:15;97623.31;;;14.03;100.00
9289;BME280;4683;50.864;12.086;2023-10-31T09:35:43;97616.88;;;13.99;100.00
9289;BME280;4683;50.864;12.086;2023-10-31T09:38:12;97616.88;;;13.99;100.00
9289;BME280;4683;50.864;12.086;2023-10-31T09:40:41;97617.38;;;13.95;100.00
9289;BME280;4683;50.864;12.086;2023-10-31T09:43:10;97609.50;;;14.01;100.00
9289;BME280;4683;50.864;12.086;2023-10-31T09:45:39;97611.28;;;14.12;100.00
9289;BME280;4683;50.864;12.086;2023-10-31T09:48:08;97611.94;;;14.19;100.00
9289;BME280;4683;50.864;12.086;2023-10-31T09:50:37;97608.91;;;14.27;100.00
9289;BME280;4683;50.864;12.086;2023-10-31T09:53:06;97610.53;;;14.62;100.00
9289;BME280;4683;50.864;12.086;2023-10-31T09:55:37;97606.50;;;14.59;100.00
9289;BME280;4683;50.864;12.086;2023-10-31T09:58:06;97616.34;;;14.30;100.00
9289;BME280;4683;50.864;12.086;2023-10-31T10:00:37;97612.47;;;14.50;100.00
9289;BME280;4683;50.864;12.086;2023-10-31T10:03:07;97614.38;;;14.37;100.00
9289;BME280;4683;50.864;12.086;2023-10-31T10:05:36;97610.91;;;14.37;100.00
9289;BME280;4683;50.864;12.086;2023-10-31T10:08:05;97610.50;;;14.28;100.00
9289;BME280;4683;50.864;12.086;2023-10-31T10:10:34;97615.63;;;14.18;100.00
9289;BME280;4683;50.864;12.086;2023-10-31T10:13:02;97608.72;;;14.34;100.00
9289;BME280;4683;50.864;12.086;2023-10-31T10:15:31;97609.09;;;14.54;100.00
9289;BME280;4683;50.864;12.086;2023-10-31T10:18:25;97600.41;;;14.59;100.00
9289;BME280;4683;50.864;12.086;2023-10-31T10:20:56;97607.78;;;14.90;100.00
9289;BME280;4683;50.864;12.086;2023-10-31T10:23:29;97610.34;;;14.85;100.00
9289;BME280;4683;50.864;12.086;2023-10-31T10:26:00;97612.41;;;15.00;100.00
9289;BME280;4683;50.864;12.086;2023-10-31T10:28:28;97618.69;;;14.94;100.00
9289;BME280;4683;50.864;12.086;2023-10-31T10:30:57;97617.75;;;15.22;100.00
9289;BME280;4683;50.864;12.086;2023-10-31T10:33:26;97615.72;;;15.29;100.00
9289;BME280;4683;50.864;12.086;2023-10-31T10:35:55;97619.66;;;15.05;100.00
9289;BME280;4683;50.864;12.086;2023-10-31T10:38:24;97615.38;;;15.04;100.00
9289;BME280;4683;50.864;12.086;2023-10-31T10:40:54;97618.13;;;14.92;100.00
9289;BME280;4683;50.864;12.086;2023-10-31T10:43:25;97614.03;;;14.84;100.00
9289;BME280;4683;50.864;12.086;2023-10-31T10:45:55;97611.81;;;14.76;100.00
9289;BME280;4683;50.864;12.086;2023-10-31T10:48:27;97614.91;;;14.39;100.00
9289;BME280;4683;50.864;12.086;2023-10-31T10:51:11;97622.09;;;14.56;100.00
9289;BME280;4683;50.864;12.086;2023-10-31T10:53:50;97631.09;;;14.71;100.00
9289;BME280;4683;50.864;12.086;2023-10-31T10:56:25;97628.28;;;14.61;100.00
9289;BME280;4683;50.864;12.086;2023-10-31T10:59:00;97638.75;;;14.51;100.00
9289;BME280;4683;50.864;12.086;2023-10-31T11:01:31;97649.91;;;14.36;100.00
9289;BME280;4683;50.864;12.086;2023-10-31T11:04:04;97645.44;;;14.25;100.00
9289;BME280;4683;50.864;12.086;2023-10-31T11:06:34;97638.47;;;14.19;100.00
9289;BME280;4683;50.864;12.086;2023-10-31T11:09:06;97644.88;;;14.52;100.00
9289;BME280;4683;50.864;12.086;2023-10-31T11:11:36;97648.00;;;14.49;100.00
9289;BME280;4683;50.864;12.086;2023-10-31T11:14:07;97649.25;;;14.46;100.00
9289;BME280;4683;50.864;12.086;2023-10-31T11:16:43;97642.25;;;14.23;100.00
9289;BME280;4683;50.864;12.086;2023-10-31T11:19:14;97641.56;;;14.16;100.00
9289;BME280;4683;50.864;12.086;2023-10-31T11:21:59;97650.25;;;14.11;100.00
9289;BME280;4683;50.864;12.086;2023-10-31T11:24:29;97652.56;;;14.08;100.00
9289;BME280;4683;50.864;12.086;2023-10-31T11:27:02;97656.78;;;14.20;100.00
9289;BME280;4683;50.864;12.086;2023-10-31T11:29:32;97663.84;;;14.15;100.00
9289;BME280;4683;50.864;12.086;2023-10-31T11:32:01;97667.16;;;14.22;100.00
9289;BME280;4683;50.864;12.086;2023-10-31T11:34:31;97673.50;;;14.21;100.00
9289;BME280;4683;50.864;12.086;2023-10-31T11:37:24;97684.25;;;14.14;100.00
9289;BME280;4683;50.864;12.086;2023-10-31T11:40:20;97681.06;;;14.29;100.00
9289;BME280;4683;50.864;12.086;2023-10-31T11:42:50;97684.72;;;14.40;100.00
9289;BME280;4683;50.864;12.086;2023-10-31T11:45:27;97686.94;;;14.60;100.00
9289;BME280;4683;50.864;12.086;2023-10-31T11:47:57;97700.91;;;14.55;100.00
9289;BME280;4683;50.864;12.086;2023-10-31T11:50:28;97702.31;;;14.46;100.00
9289;BME280;4683;50.864;12.086;2023-10-31T11:53:01;97705.78;;;14.46;100.00
9289;BME280;4683;50.864;12.086;2023-10-31T11:55:36;97706.66;;;14.35;100.00
9289;BME280;4683;50.864;12.086;2023-10-31T11:58:17;97705.66;;;14.25;100.00
9289;BME280;4683;50.864;12.086;2023-10-31T12:00:49;97715.75;;;14.11;100.00
9289;BME280;4683;50.864;12.086;2023-10-31T12:03:20;97719.91;;;14.07;100.00
9289;BME280;4683;50.864;12.086;2023-10-31T12:06:04;97721.72;;;14.18;100.00
9289;BME280;4683;50.864;12.086;2023-10-31T12:08:35;97722.03;;;14.21;100.00
9289;BME280;4683;50.864;12.086;2023-10-31T12:11:08;97717.69;;;14.15;100.00
9289;BME280;4683;50.864;12.086;2023-10-31T12:13:38;97718.66;;;14.09;100.00
9289;BME280;4683;50.864;12.086;2023-10-31T12:16:09;97719.56;;;14.03;100.00
9289;BME280;4683;50.864;12.086;2023-10-31T12:18:39;97715.19;;;14.09;100.00
9289;BME280;4683;50.864;12.086;2023-10-31T12:21:09;97728.22;;;13.99;100.00
9289;BME280;4683;50.864;12.086;2023-10-31T12:23:41;97738.09;;;13.86;100.00
9289;BME280;4683;50.864;12.086;2023-10-31T12:26:09;97737.50;;;13.84;100.00
9289;BME280;4683;50.864;12.086;2023-10-31T12:28:37;97737.97;;;13.81;100.00
9289;BME280;4683;50.864;12.086;2023-10-31T12:31:06;97735.00;;;13.66;100.00
9289;BME280;4683;50.864;12.086;2023-10-31T12:33:34;97733.72;;;13.68;100.00
9289;BME280;4683;50.864;12.086;2023-10-31T12:36:06;97733.38;;;13.65;100.00
9289;BME280;4683;50.864;12.086;2023-10-31T12:38:36;97739.16;;;13.62;100.00
9289;BME280;4683;50.864;12.086;2023-10-31T12:41:05;97741.44;;;13.70;100.00
9289;BME280;4683;50.864;12.086;2023-10-31T12:43:35;97741.00;;;13.73;100.00
9289;BME280;4683;50.864;12.086;2023-10-31T12:46:25;97739.38;;;13.72;100.00
9289;BME280;4683;50.864;12.086;2023-10-31T12:48:55;97748.22;;;13.78;100.00
9289;BME280;4683;50.864;12.086;2023-10-31T12:51:24;97738.53;;;13.83;100.00
9289;BME280;4683;50.864;12.086;2023-10-31T12:53:54;97744.53;;;13.79;100.00
9289;BME280;4683;50.864;12.086;2023-10-31T12:56:37;97745.44;;;13.84;100.00
9289;BME280;4683;50.864;12.086;2023-10-31T12:59:07;97749.44;;;13.99;100.00
9289;BME280;4683;50.864;12.086;2023-10-31T13:01:36;97759.19;;;13.81;100.00
9289;BME280;4683;50.864;12.086;2023-10-31T13:04:05;97760.00;;;13.82;100.00
9289;BME280;4683;50.864;12.086;2023-10-31T13:06:33;97763.09;;;13.90;100.00
9289;BME280;4683;50.864;12.086;2023-10-31T13:09:04;97767.13;;;13.81;100.00
9289;BME280;4683;50.864;12.086;2023-10-31T13:11:40;97769.53;;;13.71;100.00
9289;BME280;4683;50.864;12.086;2023-10-31T13:14:08;97768.16;;;13.80;100.00
9289;BME280;4683;50.864;12.086;2023-10-31T13:16:36;97769.78;;;13.81;100.00
9289;BME280;4683;50.864;12.086;2023-10-31T13:19:05;97758.03;;;13.77;100.00
9289;BME280;4683;50.864;12.086;2023-10-31T13:21:35;97772.66;;;13.80;100.00
9289;BME280;4683;50.864;12.086;2023-10-31T13:24:07;97764.13;;;13.78;100.00
9289;BME280;4683;50.864;12.086;2023-10-31T13:26:36;97762.41;;;13.83;100.00